sensor_id;sensor_type;location;lat;lon;timestamp;P1;durP1;ratioP1;P2;durP2;ratioP2
31348;SDS011;17976;48.480;11.946;2022-11-15T09:43:29;15.20;;;8.88;;
31348;SDS011;17976;48.480;11.946;2022-11-15T09:46:02;15.27;;;8.93;;
31348;SDS011;17976;48.480;11.946;2022-11-15T09:50:57;19.08;;;9.98;;
31348;SDS011;17976;48.480;11.946;2022-11-15T09:55:58;18.90;;;10.68;;
31348;SDS011;17976;48.480;11.946;2022-11-15T10:01:22;13.55;;;8.40;;
31348;SDS011;17976;48.480;11.946;2022-11-15T10:03:51;13.35;;;7.85;;
31348;SDS011;17976;48.480;11.946;2022-11-15T10:06:25;14.07;;;7.07;;
31348;SDS011;17976;48.480;11.946;2022-11-15T10:11:24;14.15;;;7.65;;
31348;SDS011;17976;48.480;11.946;2022-11-15T10:13:52;10.57;;;7.20;;
31348;SDS011;17976;48.480;11.946;2022-11-15T10:16:29;14.82;;;8.35;;
31348;SDS011;17976;48.480;11.946;2022-11-15T10:21:32;13.85;;;8.50;;
31348;SDS011;17976;48.480;11.946;2022-11-15T10:24:00;13.18;;;7.82;;
31348;SDS011;17976;48.480;11.946;2022-11-15T10:26:26;10.85;;;8.00;;
31348;SDS011;17976;48.480;11.946;2022-11-15T10:28:53;13.10;;;7.40;;
31348;SDS011;17976;48.480;11.946;2022-11-15T10:31:26;11.70;;;7.18;;
31348;SDS011;17976;48.480;11.946;2022-11-15T10:36:37;18.05;;;7.63;;
31348;SDS011;17976;48.480;11.946;2022-11-15T10:39:03;10.32;;;6.75;;
31348;SDS011;17976;48.480;11.946;2022-11-15T10:46:37;12.55;;;7.13;;
31348;SDS011;17976;48.480;11.946;2022-11-15T10:49:17;11.43;;;6.72;;
31348;SDS011;17976;48.480;11.946;2022-11-15T10:51:53;12.40;;;6.60;;
31348;SDS011;17976;48.480;11.946;2022-11-15T10:54:24;11.85;;;6.93;;
31348;SDS011;17976;48.480;11.946;2022-11-15T10:56:51;9.95;;;6.28;;
31348;SDS011;17976;48.480;11.946;2022-11-15T10:59:23;9.30;;;6.07;;
31348;SDS011;17976;48.480;11.946;2022-11-15T11:01:50;9.57;;;6.57;;
31348;SDS011;17976;48.480;11.946;2022-11-15T11:04:16;9.20;;;6.13;;
31348;SDS011;17976;48.480;11.946;2022-11-15T11:09:23;7.40;;;5.72;;
31348;SDS011;17976;48.480;11.946;2022-11-15T11:11:50;8.82;;;5.20;;
31348;SDS011;17976;48.480;11.946;2022-11-15T11:14:20;8.35;;;5.50;;
31348;SDS011;17976;48.480;11.946;2022-11-15T11:16:56;8.65;;;6.25;;
31348;SDS011;17976;48.480;11.946;2022-11-15T11:19:38;8.60;;;5.13;;
31348;SDS011;17976;48.480;11.946;2022-11-15T11:22:15;7.85;;;5.32;;
31348;SDS011;17976;48.480;11.946;2022-11-15T11:27:34;5.63;;;4.30;;
31348;SDS011;17976;48.480;11.946;2022-11-15T11:30:16;7.72;;;4.85;;
31348;SDS011;17976;48.480;11.946;2022-11-15T11:32:50;6.60;;;4.28;;
31348;SDS011;17976;48.480;11.946;2022-11-15T11:37:53;5.90;;;3.60;;
31348;SDS011;17976;48.480;11.946;2022-11-15T11:40:28;6.43;;;3.90;;
31348;SDS011;17976;48.480;11.946;2022-11-15T11:43:01;4.50;;;3.67;;
31348;SDS011;17976;48.480;11.946;2022-11-15T11:48:14;4.15;;;3.60;;
31348;SDS011;17976;48.480;11.946;2022-11-15T11:50:40;5.75;;;4.13;;
31348;SDS011;17976;48.480;11.946;2022-11-15T11:55:59;6.85;;;3.83;;
31348;SDS011;17976;48.480;11.946;2022-11-15T11:58:41;4.80;;;3.80;;
31348;SDS011;17976;48.480;11.946;2022-11-15T12:03:44;5.93;;;4.03;;
31348;SDS011;17976;48.480;11.946;2022-11-15T12:06:31;16.90;;;9.13;;
31348;SDS011;17976;48.480;11.946;2022-11-15T12:09:00;6.57;;;3.40;;
31348;SDS011;17976;48.480;11.946;2022-11-15T12:11:34;4.85;;;3.30;;
31348;SDS011;17976;48.480;11.946;2022-11-15T12:14:02;4.75;;;3.85;;
31348;SDS011;17976;48.480;11.946;2022-11-15T12:16:30;5.93;;;4.18;;
31348;SDS011;17976;48.480;11.946;2022-11-15T12:18:59;3.60;;;3.15;;
31348;SDS011;17976;48.480;11.946;2022-11-15T12:21:34;3.47;;;3.10;;
31348;SDS011;17976;48.480;11.946;2022-11-15T12:24:06;3.92;;;3.25;;
31348;SDS011;17976;48.480;11.946;2022-11-15T12:26:38;4.88;;;3.47;;
31348;SDS011;17976;48.480;11.946;2022-11-15T12:29:16;6.25;;;3.45;;
31348;SDS011;17976;48.480;11.946;2022-11-15T12:31:44;4.57;;;2.90;;
31348;SDS011;17976;48.480;11.946;2022-11-15T12:36:45;5.25;;;3.08;;
31348;SDS011;17976;48.480;11.946;2022-11-15T12:39:12;6.75;;;3.85;;
31348;SDS011;17976;48.480;11.946;2022-11-15T12:41:39;5.22;;;3.63;;
31348;SDS011;17976;48.480;11.946;2022-11-15T12:49:41;6.28;;;3.50;;
31348;SDS011;17976;48.480;11.946;2022-11-15T12:52:08;3.63;;;3.30;;
31348;SDS011;17976;48.480;11.946;2022-11-15T12:59:52;3.92;;;3.13;;
31348;SDS011;17976;48.480;11.946;2022-11-15T13:02:26;3.55;;;2.97;;
31348;SDS011;17976;48.480;11.946;2022-11-15T13:04:54;4.20;;;3.33;;
31348;SDS011;17976;48.480;11.946;2022-11-15T13:10:07;6.25;;;3.65;;
31348;SDS011;17976;48.480;11.946;2022-11-15T13:17:48;5.03;;;4.10;;
31348;SDS011;17976;48.480;11.946;2022-11-15T13:22:51;6.57;;;3.60;;
31348;SDS011;17976;48.480;11.946;2022-11-15T13:25:23;6.20;;;4.13;;
31348;SDS011;17976;48.480;11.946;2022-11-15T13:27:52;7.13;;;3.90;;
31348;SDS011;17976;48.480;11.946;2022-11-15T13:30:29;5.20;;;3.80;;
31348;SDS011;17976;48.480;11.946;2022-11-15T13:32:55;6.68;;;4.18;;
31348;SDS011;17976;48.480;11.946;2022-11-15T13:35:27;5.97;;;4.00;;
31348;SDS011;17976;48.480;11.946;2022-11-15T13:37:54;4.97;;;3.65;;
31348;SDS011;17976;48.480;11.946;2022-11-15T13:40:33;6.07;;;4.38;;
31348;SDS011;17976;48.480;11.946;2022-11-15T13:43:00;7.40;;;4.63;;
31348;SDS011;17976;48.480;11.946;2022-11-15T13:45:39;6.63;;;4.90;;
31348;SDS011;17976;48.480;11.946;2022-11-15T13:48:05;8.63;;;5.30;;
31348;SDS011;17976;48.480;11.946;2022-11-15T13:50:33;9.75;;;5.80;;
31348;SDS011;17976;48.480;11.946;2022-11-15T13:53:01;10.75;;;6.00;;
31348;SDS011;17976;48.480;11.946;2022-11-15T13:55:27;7.35;;;5.45;;
31348;SDS011;17976;48.480;11.946;2022-11-15T13:57:58;8.93;;;5.75;;
31348;SDS011;17976;48.480;11.946;2022-11-15T14:02:50;9.57;;;5.85;;
31348;SDS011;17976;48.480;11.946;2022-11-15T14:05:17;10.57;;;6.70;;
31348;SDS011;17976;48.480;11.946;2022-11-15T14:07:54;10.20;;;6.38;;
31348;SDS011;17976;48.480;11.946;2022-11-15T14:10:34;10.45;;;6.43;;
31348;SDS011;17976;48.480;11.946;2022-11-15T14:13:01;9.40;;;6.43;;
31348;SDS011;17976;48.480;11.946;2022-11-15T14:15:32;9.73;;;6.20;;
31348;SDS011;17976;48.480;11.946;2022-11-15T14:17:59;9.63;;;6.00;;
31348;SDS011;17976;48.480;11.946;2022-11-15T14:20:26;17.17;;;5.82;;
31348;SDS011;17976;48.480;11.946;2022-11-15T14:22:54;8.52;;;5.90;;
31348;SDS011;17976;48.480;11.946;2022-11-15T14:25:21;9.13;;;5.70;;
31348;SDS011;17976;48.480;11.946;2022-11-15T14:28:08;8.93;;;5.28;;
31348;SDS011;17976;48.480;11.946;2022-11-15T14:30:35;10.25;;;5.57;;
31348;SDS011;17976;48.480;11.946;2022-11-15T14:33:01;9.52;;;6.10;;
31348;SDS011;17976;48.480;11.946;2022-11-15T14:35:27;10.77;;;5.43;;
31348;SDS011;17976;48.480;11.946;2022-11-15T14:37:54;8.52;;;4.93;;
31348;SDS011;17976;48.480;11.946;2022-11-15T14:40:20;8.20;;;5.35;;
31348;SDS011;17976;48.480;11.946;2022-11-15T14:42:47;8.60;;;5.55;;
31348;SDS011;17976;48.480;11.946;2022-11-15T14:45:15;8.18;;;5.65;;
31348;SDS011;17976;48.480;11.946;2022-11-15T14:47:42;8.13;;;5.18;;
31348;SDS011;17976;48.480;11.946;2022-11-15T14:50:15;8.15;;;5.13;;
31348;SDS011;17976;48.480;11.946;2022-11-15T14:52:41;9.43;;;5.00;;
31348;SDS011;17976;48.480;11.946;2022-11-15T14:57:36;8.10;;;5.60;;
31348;SDS011;17976;48.480;11.946;2022-11-15T15:00:02;11.05;;;5.72;;
31348;SDS011;17976;48.480;11.946;2022-11-15T15:02:28;8.40;;;5.20;;
31348;SDS011;17976;48.480;11.946;2022-11-15T15:04:54;9.98;;;4.95;;
31348;SDS011;17976;48.480;11.946;2022-11-15T15:07:22;11.18;;;5.35;;
31348;SDS011;17976;48.480;11.946;2022-11-15T15:09:48;9.07;;;5.50;;
31348;SDS011;17976;48.480;11.946;2022-11-15T15:12:15;10.80;;;5.13;;
31348;SDS011;17976;48.480;11.946;2022-11-15T15:14:42;8.10;;;5.43;;
31348;SDS011;17976;48.480;11.946;2022-11-15T15:17:08;9.82;;;5.15;;
31348;SDS011;17976;48.480;11.946;2022-11-15T15:19:34;8.38;;;4.97;;
31348;SDS011;17976;48.480;11.946;2022-11-15T15:22:00;9.05;;;5.05;;
31348;SDS011;17976;48.480;11.946;2022-11-15T15:24:26;9.95;;;5.18;;
31348;SDS011;17976;48.480;11.946;2022-11-15T15:26:52;12.32;;;5.45;;
31348;SDS011;17976;48.480;11.946;2022-11-15T15:29:18;10.02;;;5.00;;
31348;SDS011;17976;48.480;11.946;2022-11-15T15:31:44;9.98;;;5.47;;
31348;SDS011;17976;48.480;11.946;2022-11-15T15:34:10;11.55;;;5.93;;
31348;SDS011;17976;48.480;11.946;2022-11-15T15:36:35;14.35;;;6.80;;
31348;SDS011;17976;48.480;11.946;2022-11-15T15:39:01;10.55;;;6.15;;
31348;SDS011;17976;48.480;11.946;2022-11-15T15:41:28;15.88;;;7.38;;
31348;SDS011;17976;48.480;11.946;2022-11-15T15:43:54;9.52;;;5.40;;
31348;SDS011;17976;48.480;11.946;2022-11-15T15:46:20;8.75;;;5.53;;
31348;SDS011;17976;48.480;11.946;2022-11-15T15:48:46;11.40;;;6.28;;
31348;SDS011;17976;48.480;11.946;2022-11-15T15:51:12;11.18;;;5.90;;
31348;SDS011;17976;48.480;11.946;2022-11-15T15:53:38;10.07;;;5.63;;
31348;SDS011;17976;48.480;11.946;2022-11-15T15:56:04;12.35;;;5.70;;
31348;SDS011;17976;48.480;11.946;2022-11-15T15:58:33;10.63;;;6.00;;
31348;SDS011;17976;48.480;11.946;2022-11-15T16:00:59;11.82;;;6.95;;
31348;SDS011;17976;48.480;11.946;2022-11-15T16:03:24;13.88;;;6.38;;
31348;SDS011;17976;48.480;11.946;2022-11-15T16:05:52;9.75;;;6.05;;
31348;SDS011;17976;48.480;11.946;2022-11-15T16:08:19;14.05;;;6.90;;
31348;SDS011;17976;48.480;11.946;2022-11-15T16:10:45;12.95;;;7.20;;
31348;SDS011;17976;48.480;11.946;2022-11-15T16:13:12;18.70;;;8.23;;
31348;SDS011;17976;48.480;11.946;2022-11-15T16:15:38;16.35;;;9.43;;
31348;SDS011;17976;48.480;11.946;2022-11-15T16:18:04;16.80;;;8.60;;
31348;SDS011;17976;48.480;11.946;2022-11-15T16:23:09;18.23;;;10.27;;
31348;SDS011;17976;48.480;11.946;2022-11-15T16:25:44;23.80;;;10.02;;
31348;SDS011;17976;48.480;11.946;2022-11-15T16:28:21;16.88;;;10.18;;
31348;SDS011;17976;48.480;11.946;2022-11-15T16:30:47;19.02;;;11.48;;
31348;SDS011;17976;48.480;11.946;2022-11-15T16:33:14;25.27;;;12.02;;
31348;SDS011;17976;48.480;11.946;2022-11-15T16:35:40;27.30;;;13.70;;
31348;SDS011;17976;48.480;11.946;2022-11-15T16:38:07;32.60;;;17.27;;
31348;SDS011;17976;48.480;11.946;2022-11-15T16:40:38;45.50;;;18.77;;
31348;SDS011;17976;48.480;11.946;2022-11-15T16:43:04;36.47;;;18.45;;
31348;SDS011;17976;48.480;11.946;2022-11-15T16:45:31;34.35;;;17.65;;
31348;SDS011;17976;48.480;11.946;2022-11-15T16:47:59;38.85;;;18.65;;
31348;SDS011;17976;48.480;11.946;2022-11-15T16:50:26;34.00;;;18.48;;
31348;SDS011;17976;48.480;11.946;2022-11-15T16:52:52;41.25;;;18.38;;
31348;SDS011;17976;48.480;11.946;2022-11-15T16:55:19;37.15;;;17.35;;
31348;SDS011;17976;48.480;11.946;2022-11-15T16:57:45;36.45;;;16.95;;
31348;SDS011;17976;48.480;11.946;2022-11-15T17:00:11;33.85;;;16.70;;
31348;SDS011;17976;48.480;11.946;2022-11-15T17:02:40;30.75;;;15.95;;
31348;SDS011;17976;48.480;11.946;2022-11-15T17:05:06;22.42;;;13.60;;
31348;SDS011;17976;48.480;11.946;2022-11-15T17:07:32;23.20;;;12.88;;
31348;SDS011;17976;48.480;11.946;2022-11-15T17:09:58;19.83;;;12.02;;
31348;SDS011;17976;48.480;11.946;2022-11-15T17:12:24;26.33;;;13.32;;
31348;SDS011;17976;48.480;11.946;2022-11-15T17:14:50;28.63;;;14.52;;
31348;SDS011;17976;48.480;11.946;2022-11-15T17:17:16;48.38;;;23.73;;
31348;SDS011;17976;48.480;11.946;2022-11-15T17:19:42;30.52;;;16.02;;
31348;SDS011;17976;48.480;11.946;2022-11-15T17:22:08;27.20;;;15.13;;
31348;SDS011;17976;48.480;11.946;2022-11-15T17:24:34;26.35;;;14.73;;
31348;SDS011;17976;48.480;11.946;2022-11-15T17:27:00;29.17;;;14.57;;
31348;SDS011;17976;48.480;11.946;2022-11-15T17:29:26;26.38;;;14.23;;
31348;SDS011;17976;48.480;11.946;2022-11-15T17:31:52;25.70;;;14.25;;
31348;SDS011;17976;48.480;11.946;2022-11-15T17:34:18;25.45;;;12.82;;
31348;SDS011;17976;48.480;11.946;2022-11-15T17:36:44;21.13;;;12.70;;
31348;SDS011;17976;48.480;11.946;2022-11-15T17:39:17;23.23;;;12.68;;
31348;SDS011;17976;48.480;11.946;2022-11-15T17:41:44;24.10;;;12.23;;
31348;SDS011;17976;48.480;11.946;2022-11-15T17:44:10;21.65;;;12.57;;
31348;SDS011;17976;48.480;11.946;2022-11-15T17:46:36;20.85;;;11.10;;
31348;SDS011;17976;48.480;11.946;2022-11-15T17:49:04;21.23;;;11.45;;
31348;SDS011;17976;48.480;11.946;2022-11-15T17:51:30;22.50;;;12.07;;
31348;SDS011;17976;48.480;11.946;2022-11-15T17:57:10;24.02;;;11.57;;
31348;SDS011;17976;48.480;11.946;2022-11-15T17:59:36;27.17;;;12.02;;
31348;SDS011;17976;48.480;11.946;2022-11-15T18:02:02;22.75;;;12.02;;
31348;SDS011;17976;48.480;11.946;2022-11-15T18:04:28;23.33;;;12.70;;
31348;SDS011;17976;48.480;11.946;2022-11-15T18:06:54;25.42;;;12.55;;
31348;SDS011;17976;48.480;11.946;2022-11-15T18:09:20;31.90;;;16.25;;
31348;SDS011;17976;48.480;11.946;2022-11-15T18:11:46;32.00;;;17.83;;
31348;SDS011;17976;48.480;11.946;2022-11-15T18:14:15;33.92;;;16.85;;
31348;SDS011;17976;48.480;11.946;2022-11-15T18:16:41;31.55;;;16.13;;
31348;SDS011;17976;48.480;11.946;2022-11-15T18:19:07;32.60;;;16.15;;
31348;SDS011;17976;48.480;11.946;2022-11-15T18:21:37;36.17;;;17.25;;
31348;SDS011;17976;48.480;11.946;2022-11-15T18:24:20;34.97;;;16.60;;
31348;SDS011;17976;48.480;11.946;2022-11-15T18:26:46;30.77;;;15.05;;
31348;SDS011;17976;48.480;11.946;2022-11-15T18:29:12;42.17;;;16.65;;
31348;SDS011;17976;48.480;11.946;2022-11-15T18:31:38;36.83;;;17.52;;
31348;SDS011;17976;48.480;11.946;2022-11-15T18:34:05;38.25;;;15.60;;
31348;SDS011;17976;48.480;11.946;2022-11-15T18:36:31;29.77;;;14.77;;
31348;SDS011;17976;48.480;11.946;2022-11-15T18:38:58;37.92;;;15.93;;
31348;SDS011;17976;48.480;11.946;2022-11-15T18:41:26;27.10;;;14.70;;
31348;SDS011;17976;48.480;11.946;2022-11-15T18:43:53;25.70;;;14.73;;
31348;SDS011;17976;48.480;11.946;2022-11-15T18:46:20;27.08;;;15.07;;
31348;SDS011;17976;48.480;11.946;2022-11-15T18:48:46;30.95;;;13.85;;
31348;SDS011;17976;48.480;11.946;2022-11-15T18:51:16;28.20;;;15.45;;
31348;SDS011;17976;48.480;11.946;2022-11-15T18:53:42;35.47;;;16.73;;
31348;SDS011;17976;48.480;11.946;2022-11-15T18:56:15;30.83;;;17.13;;
31348;SDS011;17976;48.480;11.946;2022-11-15T18:58:43;27.38;;;15.55;;
31348;SDS011;17976;48.480;11.946;2022-11-15T19:01:10;29.33;;;16.38;;
31348;SDS011;17976;48.480;11.946;2022-11-15T19:03:38;28.05;;;16.67;;
31348;SDS011;17976;48.480;11.946;2022-11-15T19:06:11;30.15;;;16.98;;
31348;SDS011;17976;48.480;11.946;2022-11-15T19:08:37;34.28;;;16.83;;
31348;SDS011;17976;48.480;11.946;2022-11-15T19:11:11;27.65;;;15.38;;
31348;SDS011;17976;48.480;11.946;2022-11-15T19:13:38;26.55;;;14.77;;
31348;SDS011;17976;48.480;11.946;2022-11-15T19:16:04;24.13;;;14.73;;
31348;SDS011;17976;48.480;11.946;2022-11-15T19:18:31;20.45;;;12.02;;
31348;SDS011;17976;48.480;11.946;2022-11-15T19:21:01;20.73;;;11.85;;
31348;SDS011;17976;48.480;11.946;2022-11-15T19:23:28;22.60;;;11.85;;
31348;SDS011;17976;48.480;11.946;2022-11-15T19:25:54;21.02;;;11.80;;
31348;SDS011;17976;48.480;11.946;2022-11-15T19:28:21;19.75;;;12.02;;
31348;SDS011;17976;48.480;11.946;2022-11-15T19:30:47;24.73;;;11.55;;
31348;SDS011;17976;48.480;11.946;2022-11-15T19:33:13;20.80;;;12.20;;
31348;SDS011;17976;48.480;11.946;2022-11-15T19:35:39;18.45;;;11.18;;
31348;SDS011;17976;48.480;11.946;2022-11-15T19:38:05;18.58;;;11.40;;
31348;SDS011;17976;48.480;11.946;2022-11-15T19:40:33;21.98;;;10.80;;
31348;SDS011;17976;48.480;11.946;2022-11-15T19:42:59;18.20;;;10.57;;
31348;SDS011;17976;48.480;11.946;2022-11-15T19:45:25;19.80;;;10.43;;
31348;SDS011;17976;48.480;11.946;2022-11-15T19:47:51;18.65;;;10.63;;
31348;SDS011;17976;48.480;11.946;2022-11-15T19:50:17;17.83;;;10.70;;
31348;SDS011;17976;48.480;11.946;2022-11-15T19:52:43;20.80;;;11.25;;
31348;SDS011;17976;48.480;11.946;2022-11-15T19:55:10;18.35;;;11.00;;
31348;SDS011;17976;48.480;11.946;2022-11-15T19:57:36;20.83;;;11.80;;
31348;SDS011;17976;48.480;11.946;2022-11-15T20:00:02;23.77;;;12.25;;
31348;SDS011;17976;48.480;11.946;2022-11-15T20:02:30;26.58;;;12.55;;
31348;SDS011;17976;48.480;11.946;2022-11-15T20:04:56;23.63;;;11.77;;
31348;SDS011;17976;48.480;11.946;2022-11-15T20:07:22;22.52;;;11.50;;
31348;SDS011;17976;48.480;11.946;2022-11-15T20:09:48;21.90;;;11.68;;
31348;SDS011;17976;48.480;11.946;2022-11-15T20:12:13;18.48;;;10.65;;
31348;SDS011;17976;48.480;11.946;2022-11-15T20:14:39;18.67;;;11.88;;
31348;SDS011;17976;48.480;11.946;2022-11-15T20:17:05;27.75;;;14.60;;
31348;SDS011;17976;48.480;11.946;2022-11-15T20:19:31;21.83;;;12.30;;
31348;SDS011;17976;48.480;11.946;2022-11-15T20:21:57;20.50;;;11.95;;
31348;SDS011;17976;48.480;11.946;2022-11-15T20:24:23;29.77;;;12.38;;
31348;SDS011;17976;48.480;11.946;2022-11-15T20:26:50;21.58;;;12.65;;
31348;SDS011;17976;48.480;11.946;2022-11-15T20:29:16;22.65;;;12.75;;
31348;SDS011;17976;48.480;11.946;2022-11-15T20:31:42;18.58;;;11.98;;
31348;SDS011;17976;48.480;11.946;2022-11-15T20:34:08;24.77;;;12.85;;
31348;SDS011;17976;48.480;11.946;2022-11-15T20:36:34;19.65;;;11.63;;
31348;SDS011;17976;48.480;11.946;2022-11-15T20:39:00;24.35;;;11.82;;
31348;SDS011;17976;48.480;11.946;2022-11-15T20:41:26;25.70;;;12.18;;
31348;SDS011;17976;48.480;11.946;2022-11-15T20:43:52;19.92;;;11.55;;
31348;SDS011;17976;48.480;11.946;2022-11-15T20:46:19;18.80;;;10.18;;
31348;SDS011;17976;48.480;11.946;2022-11-15T20:48:45;17.90;;;10.00;;
31348;SDS011;17976;48.480;11.946;2022-11-15T20:51:15;21.33;;;12.18;;
31348;SDS011;17976;48.480;11.946;2022-11-15T20:53:41;19.60;;;11.98;;
31348;SDS011;17976;48.480;11.946;2022-11-15T20:56:11;24.13;;;12.25;;
31348;SDS011;17976;48.480;11.946;2022-11-15T20:58:47;19.58;;;12.02;;
